Time;durP1;ratioP1;P1;durP2;ratioP2;P2;SDS_P1;SDS_P2;PMS_P1;PMS_P2;Temp;Humidity;BMP_temperature;BMP_pressure;BME280_temperature;BME280_humidity;BME280_pressure;Samples;Min_cycle;Max_cycle;Signal;HPM_P1;HPM_P2
2022/04/23 00:00:34;;;;;;;44.30;26.85;;;;;;;5.46;74.93;99668.27;1823769;78;25535;-75
2022/04/23 00:03:03;;;;;;;45.75;27.98;;;;;;;5.50;75.12;99669.83;1823795;78;25478;-75
2022/04/23 00:05:29;;;;;;;43.87;28.38;;;;;;;5.50;75.05;99662.59;1823790;78;25395;-75
2022/04/23 00:07:56;;;;;;;40.40;26.70;;;;;;;5.52;75.08;99661.75;1823774;78;27509;-75
2022/04/23 00:10:23;;;;;;;40.73;26.95;;;;;;;5.55;75.19;99663.86;1804128;78;25472;-74
2022/04/23 00:12:50;;;;;;;40.08;25.90;;;;;;;5.57;75.05;99654.97;1823786;78;25486;-75
2022/04/23 00:15:16;;;;;;;44.10;27.32;;;;;;;5.61;74.95;99657.87;1823729;78;25604;-75
2022/04/23 00:17:46;;;;;;;40.58;26.70;;;;;;;5.64;75.03;99648.45;1823800;78;25572;-75
2022/04/23 00:20:12;;;;;;;40.12;25.85;;;;;;;5.68;75.02;99655.61;1823517;78;27474;-75
2022/04/23 00:22:38;;;;;;;40.30;27.95;;;;;;;5.72;75.05;99655.82;1823690;78;26117;-76
2022/04/23 00:25:07;;;;;;;44.85;27.37;;;;;;;5.73;75.06;99652.06;1823661;78;25508;-76
2022/04/23 00:27:33;;;;;;;42.00;27.50;;;;;;;5.76;74.99;99646.11;1823845;78;25365;-74
2022/04/23 00:29:59;;;;;;;40.80;25.68;;;;;;;5.78;74.97;99645.27;1823821;78;25602;-76
2022/04/23 00:32:26;;;;;;;44.25;27.65;;;;;;;5.79;74.93;99632.12;1823778;78;27469;-76
2022/04/23 00:34:52;;;;;;;42.80;28.23;;;;;;;5.82;74.90;99638.22;1823647;78;25674;-76
2022/04/23 00:37:18;;;;;;;42.30;27.77;;;;;;;5.84;74.95;99637.41;1823768;78;29619;-76
2022/04/23 00:39:46;;;;;;;40.20;26.42;;;;;;;5.83;74.96;99633.11;1824343;78;25596;-75
2022/04/23 00:42:14;;;;;;;40.40;27.65;;;;;;;5.85;74.91;99624.77;1804034;78;25190;-74
2022/04/23 00:44:40;;;;;;;38.85;26.40;;;;;;;5.86;74.90;99619.66;1823731;78;28038;-73
2022/04/23 00:47:08;;;;;;;42.43;26.70;;;;;;;5.87;74.89;99630.64;1823657;78;25407;-74
2022/04/23 00:49:34;;;;;;;39.08;26.62;;;;;;;5.89;74.87;99632.47;1823891;78;25438;-75
2022/04/23 00:52:01;;;;;;;43.92;26.55;;;;;;;5.90;74.91;99626.81;1823819;78;25480;-74
2022/04/23 00:54:28;;;;;;;40.92;26.73;;;;;;;5.89;74.81;99624.42;1823795;78;25623;-75
2022/04/23 00:56:55;;;;;;;44.83;28.23;;;;;;;5.90;74.90;99620.11;1823778;78;27445;-76
2022/04/23 00:59:21;;;;;;;43.50;27.77;;;;;;;5.91;74.83;99614.22;1823629;78;25685;-76
2022/04/23 01:01:48;;;;;;;40.08;26.95;;;;;;;5.93;74.89;99605.31;1823779;78;25444;-75
2022/04/23 01:04:16;;;;;;;42.50;26.73;;;;;;;5.95;74.93;99606.59;1823646;78;25991;-75
2022/04/23 01:06:44;;;;;;;43.95;26.73;;;;;;;5.96;74.88;99608.23;1823777;78;25387;-75
2022/04/23 01:09:12;;;;;;;38.45;27.37;;;;;;;5.96;74.82;99601.52;1823941;78;27492;-75
2022/04/23 01:11:39;;;;;;;43.60;27.07;;;;;;;5.94;74.79;99602.34;1804328;78;25640;-77
2022/04/23 01:14:05;;;;;;;38.90;25.97;;;;;;;5.94;74.74;99593.47;1823714;78;25569;-76
2022/04/23 01:16:32;;;;;;;41.88;26.52;;;;;;;5.94;74.82;99597.50;1823682;78;25375;-75
2022/04/23 01:18:59;;;;;;;37.85;25.57;;;;;;;5.93;74.91;99598.61;1823799;78;25396;-75
2022/04/23 01:21:26;;;;;;;41.63;27.75;;;;;;;5.93;74.86;99596.70;1823771;78;27462;-75
2022/04/23 01:23:53;;;;;;;41.90;27.10;;;;;;;5.95;75.01;99597.20;1823629;78;25610;-75
2022/04/23 01:26:26;;;;;;;39.08;25.40;;;;;;;5.97;75.14;99593.70;1823684;77;25498;-76
2022/04/23 01:28:55;;;;;;;38.65;26.23;;;;;;;5.98;75.03;99588.59;1823721;78;25566;-75
2022/04/23 01:31:22;;;;;;;39.13;25.92;;;;;;;6.01;75.09;99580.52;1823840;78;25569;-76
2022/04/23 01:33:48;;;;;;;38.42;25.30;;;;;;;6.03;75.10;99581.53;1823739;78;27521;-76
2022/04/23 01:36:15;;;;;;;41.80;27.25;;;;;;;6.04;75.15;99589.84;1823643;78;25689;-76
2022/04/23 01:38:43;;;;;;;38.40;25.80;;;;;;;6.05;75.14;99584.74;1823696;78;25393;-76
2022/04/23 01:41:09;;;;;;;38.80;26.35;;;;;;;6.04;75.08;99580.45;1824781;78;25936;-76
2022/04/23 01:43:36;;;;;;;38.80;25.60;;;;;;;6.05;75.15;99582.05;1823713;78;25566;-76
2022/04/23 01:46:02;;;;;;;40.78;26.35;;;;;;;6.06;75.13;99580.95;1823718;78;28287;-75
2022/04/23 01:48:28;;;;;;;41.83;26.02;;;;;;;6.07;75.20;99577.97;1823641;78;25392;-76
2022/04/23 01:50:55;;;;;;;41.73;26.65;;;;;;;6.08;75.21;99576.89;1823682;78;25588;-76
2022/04/23 01:53:22;;;;;;;38.30;25.65;;;;;;;6.11;75.26;99575.48;1823650;78;25372;-76
2022/04/23 01:55:54;;;;;;;40.52;25.30;;;;;;;6.12;75.27;99573.06;1823701;78;25613;-76
2022/04/23 01:58:24;;;;;;;37.55;27.13;;;;;;;6.13;75.26;99571.95;1823670;78;28219;-76
2022/04/23 02:00:51;;;;;;;39.55;25.43;;;;;;;6.14;75.33;99565.50;1823620;78;25609;-76
2022/04/23 02:03:17;;;;;;;40.00;26.85;;;;;;;6.16;75.41;99563.31;1823699;78;25445;-76
2022/04/23 02:05:44;;;;;;;39.45;26.02;;;;;;;6.17;75.31;99555.52;1823595;78;25363;-76
2022/04/23 02:08:17;;;;;;;37.73;25.37;;;;;;;6.20;75.29;99559.48;1823704;78;25521;-76
2022/04/23 02:10:43;;;;;;;38.30;27.05;;;;;;;6.21;75.27;99553.02;1823513;78;27570;-75
2022/04/23 02:13:11;;;;;;;38.50;26.52;;;;;;;6.23;75.32;99553.52;1823585;78;25603;-75
2022/04/23 02:15:39;;;;;;;35.70;26.35;;;;;;;6.22;75.32;99554.08;1823665;78;25450;-75
2022/04/23 02:18:06;;;;;;;39.70;26.80;;;;;;;6.23;75.46;99552.99;1823650;78;25593;-76
2022/04/23 02:20:32;;;;;;;38.70;25.97;;;;;;;6.24;75.40;99555.91;1823802;78;25520;-76
2022/04/23 02:22:58;;;;;;;40.05;26.82;;;;;;;6.24;75.29;99553.22;1803250;78;27469;-76
2022/04/23 02:25:25;;;;;;;41.00;26.50;;;;;;;6.25;75.42;99548.11;1826319;77;32389;-76
2022/04/23 02:27:51;;;;;;;45.63;27.77;;;;;;;6.26;75.37;99545.66;1829861;77;25518;-76
2022/04/23 02:30:21;;;;;;;52.33;30.12;;;;;;;6.27;75.29;99547.82;1829728;78;25546;-75
2022/04/23 02:32:48;;;;;;;45.60;28.20;;;;;;;6.27;75.29;99550.50;1829937;78;25424;-75
2022/04/23 02:35:16;;;;;;;43.00;26.95;;;;;;;6.27;75.33;99547.82;1829720;77;27449;-75
2022/04/23 02:37:48;;;;;;;44.75;27.93;;;;;;;6.27;75.40;99547.27;1829668;77;25431;-74
2022/04/23 02:40:15;;;;;;;51.05;28.45;;;;;;;6.29;75.43;99548.31;1830858;78;25173;-75
2022/04/23 02:42:42;;;;;;;48.98;27.67;;;;;;;6.28;75.54;99542.16;1829707;78;25423;-75
2022/04/23 02:45:13;;;;;;;43.48;27.27;;;;;;;6.27;75.43;99538.42;1829755;77;25672;-75
2022/04/23 02:47:51;;;;;;;40.38;26.45;;;;;;;6.29;75.61;99544.28;1829863;77;27469;-75
2022/04/23 02:50:30;;;;;;;36.20;24.45;;;;;;;6.29;75.47;99551.00;1829657;78;25441;-75
2022/04/23 02:52:58;;;;;;;37.17;25.48;;;;;;;6.29;75.40;99551.78;1829888;77;25585;-75
2022/04/23 02:55:27;;;;;;;35.52;24.63;;;;;;;6.28;75.44;99554.77;1829774;77;25581;-75
2022/04/23 02:57:56;;;;;;;39.27;25.25;;;;;;;6.28;75.48;99548.05;1829927;77;25542;-75
2022/04/23 03:00:22;;;;;;;33.95;23.83;;;;;;;6.27;75.50;99556.66;1829788;77;27602;-75
2022/04/23 03:02:48;;;;;;;33.05;23.83;;;;;;;6.26;75.63;99549.69;1829578;78;25438;-76
2022/04/23 03:05:15;;;;;;;36.20;24.98;;;;;;;6.26;75.64;99548.90;1829733;78;25486;-76
2022/04/23 03:07:43;;;;;;;36.45;24.77;;;;;;;6.26;75.71;99549.69;1829698;78;26098;-76
2022/04/23 03:10:13;;;;;;;34.60;25.43;;;;;;;6.26;75.67;99544.31;1830747;78;25248;-76
2022/04/23 03:12:40;;;;;;;36.23;24.32;;;;;;;6.26;75.67;99548.34;1814263;78;27467;-75
2022/04/23 03:15:10;;;;;;;35.40;24.27;;;;;;;6.25;75.74;99544.09;1829822;77;25729;-75
2022/04/23 03:17:37;;;;;;;35.68;24.20;;;;;;;6.27;75.61;99542.45;1829910;78;25602;-75
2022/04/23 03:20:09;;;;;;;39.58;24.60;;;;;;;6.24;75.58;99541.14;1829879;77;25613;-75
2022/04/23 03:22:38;;;;;;;35.15;23.55;;;;;;;6.24;75.53;99543.83;1829960;78;25525;-75
2022/04/23 03:25:06;;;;;;;35.75;23.47;;;;;;;6.25;75.58;99548.64;1828885;77;28139;-76
2022/04/23 03:27:32;;;;;;;31.90;23.38;;;;;;;6.23;75.59;99553.52;1823778;78;25557;-76
2022/04/23 03:29:59;;;;;;;34.55;23.47;;;;;;;6.23;75.57;99554.86;1823802;78;25467;-76
2022/04/23 03:32:27;;;;;;;34.23;23.22;;;;;;;6.21;75.91;99549.78;1823752;78;25546;-76
2022/04/23 03:34:53;;;;;;;33.95;23.25;;;;;;;6.23;76.02;99554.86;1823801;78;25384;-76
2022/04/23 03:37:21;;;;;;;34.45;22.65;;;;;;;6.23;76.19;99554.34;1823899;78;27511;-76
2022/04/23 03:39:48;;;;;;;34.35;22.37;;;;;;;6.25;76.29;99552.67;1824535;78;25578;-76
2022/04/23 03:42:16;;;;;;;30.87;22.07;;;;;;;6.27;76.35;99551.84;1824273;78;25398;-76
2022/04/23 03:44:42;;;;;;;30.45;21.00;;;;;;;6.28;76.43;99551.55;1823737;78;25471;-76
2022/04/23 03:47:08;;;;;;;29.92;21.37;;;;;;;6.30;76.51;99549.36;1823836;78;25612;-76
2022/04/23 03:49:34;;;;;;;31.52;21.40;;;;;;;6.33;76.57;99556.01;1823982;78;27512;-76
2022/04/23 03:52:00;;;;;;;31.48;21.00;;;;;;;6.34;76.70;99558.40;1823870;78;25420;-76
2022/04/23 03:54:27;;;;;;;30.90;22.62;;;;;;;6.35;76.61;99557.31;1823944;78;29640;-76
2022/04/23 03:56:53;;;;;;;30.05;21.40;;;;;;;6.38;76.69;99552.44;1823872;78;25947;-76
2022/04/23 03:59:21;;;;;;;31.00;21.90;;;;;;;6.41;76.62;99560.69;1823751;78;25383;-76
2022/04/23 04:01:48;;;;;;;28.00;21.02;;;;;;;6.43;76.78;99558.50;1823830;78;27452;-76
2022/04/23 04:04:15;;;;;;;29.27;20.85;;;;;;;6.45;76.66;99556.33;1823632;78;25443;-76
2022/04/23 04:06:42;;;;;;;29.23;20.65;;;;;;;6.48;76.76;99559.73;1823738;78;25609;-76
2022/04/23 04:09:12;;;;;;;27.40;20.15;;;;;;;6.52;76.86;99555.90;1823767;78;25626;-75
2022/04/23 04:14:22;;;;;;;25.17;18.05;;;;;;;6.55;76.73;99553.97;1823773;78;28090;-75
2022/04/23 04:16:49;;;;;;;26.75;19.50;;;;;;;6.58;76.88;99556.61;1823636;78;25432;-75
2022/04/23 04:19:16;;;;;;;27.62;19.40;;;;;;;6.61;76.90;99557.36;1823770;78;25545;-75
2022/04/23 04:21:43;;;;;;;23.38;17.80;;;;;;;6.64;76.99;99548.68;1823730;78;25538;-75
2022/04/23 04:24:14;;;;;;;24.32;18.05;;;;;;;6.67;77.01;99556.14;1824506;78;25442;-74
2022/04/23 04:26:41;;;;;;;24.67;17.65;;;;;;;6.71;77.05;99555.81;1826655;77;27505;-74
2022/04/23 04:29:08;;;;;;;25.68;16.67;;;;;;;6.75;77.05;99554.09;1804680;78;25412;-74
2022/04/23 04:31:51;;;;;;;22.37;16.62;;;;;;;6.79;77.19;99552.39;1823761;78;25572;-74
2022/04/23 04:34:25;;;;;;;24.00;16.62;;;;;;;6.84;77.14;99546.90;1823748;78;25545;-74
2022/04/23 04:36:55;;;;;;;24.35;16.35;;;;;;;6.92;77.28;99552.13;1823789;78;25593;-74
2022/04/23 04:39:23;;;;;;;20.82;16.20;;;;;;;6.99;77.22;99547.12;1821796;78;27480;-75
2022/04/23 04:41:49;;;;;;;20.43;16.25;;;;;;;7.05;77.17;99543.23;1824212;78;26003;-74
2022/04/23 04:44:15;;;;;;;20.82;14.90;;;;;;;7.10;77.20;99540.43;1823738;78;29917;-75
2022/04/23 04:46:42;;;;;;;19.85;13.95;;;;;;;7.14;76.92;99540.61;1823672;78;34646;-75
2022/04/23 04:49:08;;;;;;;21.15;14.75;;;;;;;7.19;76.97;99539.16;1823717;78;25482;-75
2022/04/23 04:51:36;;;;;;;22.25;14.98;;;;;;;7.24;76.95;99541.72;1823718;78;28009;-75
2022/04/23 04:54:05;;;;;;;20.65;15.63;;;;;;;7.29;76.91;99543.50;1823609;78;25714;-75
2022/04/23 04:56:33;;;;;;;24.73;16.57;;;;;;;7.36;77.03;99546.56;1823622;77;25523;-75
2022/04/23 04:59:00;;;;;;;21.73;16.15;;;;;;;7.43;76.82;99550.17;1823680;78;26288;-75
2022/04/23 05:01:28;;;;;;;23.38;16.75;;;;;;;7.46;76.61;99551.70;1823779;78;25570;-75
2022/04/23 05:03:54;;;;;;;25.10;16.65;;;;;;;7.50;76.53;99548.40;1823676;78;27523;-75
2022/04/23 05:06:21;;;;;;;18.42;15.55;;;;;;;7.53;76.39;99551.83;1823587;78;25830;-75
2022/04/23 05:08:47;;;;;;;23.12;16.02;;;;;;;7.56;76.49;99545.81;1823701;78;25388;-75
2022/04/23 05:11:13;;;;;;;21.80;16.70;;;;;;;7.61;76.36;99552.41;1824819;78;25560;-75
2022/04/23 05:13:40;;;;;;;22.75;16.32;;;;;;;7.65;76.36;99546.68;1823761;78;25537;-75
2022/04/23 05:16:07;;;;;;;21.37;15.53;;;;;;;7.67;76.17;99546.59;1823695;78;27551;-75
2022/04/23 05:18:37;;;;;;;19.65;13.90;;;;;;;7.71;76.23;99539.27;1823610;78;25458;-75
2022/04/23 05:21:04;;;;;;;19.90;15.83;;;;;;;7.80;76.17;99546.30;1803349;78;25602;-75
2022/04/23 05:23:30;;;;;;;18.20;14.18;;;;;;;7.85;75.86;99548.06;1823673;78;25621;-75
2022/04/23 05:25:56;;;;;;;18.60;14.50;;;;;;;7.86;75.78;99546.38;1823604;78;25622;-75
2022/04/23 05:28:23;;;;;;;19.07;14.65;;;;;;;7.94;75.98;99549.45;1823667;78;27498;-75
2022/04/23 05:30:49;;;;;;;20.37;13.28;;;;;;;8.00;75.90;99543.63;1823557;78;25361;-76
2022/04/23 05:33:16;;;;;;;17.25;12.58;;;;;;;8.11;75.87;99546.05;1823694;78;25396;-76
2022/04/23 05:35:42;;;;;;;15.75;12.37;;;;;;;8.17;75.70;99551.52;1823657;78;25574;-76
2022/04/23 05:38:08;;;;;;;20.55;16.17;;;;;;;8.21;75.34;99550.60;1823724;78;25543;-74
2022/04/23 05:40:34;;;;;;;13.38;10.78;;;;;;;8.26;75.18;99547.52;1824423;78;27514;-75
2022/04/23 05:43:00;;;;;;;14.00;10.43;;;;;;;8.31;75.06;99544.68;1823608;78;25590;-76
2022/04/23 05:45:31;;;;;;;11.97;9.80;;;;;;;8.35;74.94;99546.45;1823686;78;25439;-76
2022/04/23 05:47:57;;;;;;;14.53;9.70;;;;;;;8.41;74.78;99550.60;1823664;78;25459;-76
2022/04/23 05:50:24;;;;;;;13.50;9.53;;;;;;;8.48;74.56;99554.22;1823720;78;25595;-76
2022/04/23 05:52:50;;;;;;;10.23;7.97;;;;;;;8.54;74.50;99551.61;1823670;78;27513;-76
2022/04/23 05:55:16;;;;;;;10.38;8.90;;;;;;;8.63;74.49;99552.97;1823576;78;32940;-76
2022/04/23 05:57:42;;;;;;;12.90;8.70;;;;;;;8.72;74.62;99555.15;1823669;78;25526;-76
2022/04/23 06:00:11;;;;;;;9.95;8.63;;;;;;;8.81;74.18;99560.55;1823651;78;25569;-76
2022/04/23 06:02:38;;;;;;;9.85;8.40;;;;;;;8.85;73.47;99560.72;1823545;78;25597;-76
2022/04/23 06:05:05;;;;;;;10.80;8.73;;;;;;;8.86;73.44;99559.63;1823619;78;27510;-76
2022/04/23 06:07:32;;;;;;;11.12;9.18;;;;;;;8.93;73.61;99556.68;1823572;78;25718;-75
2022/04/23 06:09:59;;;;;;;12.33;9.00;;;;;;;9.01;73.21;99562.39;1824636;78;25554;-76
2022/04/23 06:12:25;;;;;;;10.93;8.43;;;;;;;9.03;72.82;99561.55;1823811;78;25609;-75
2022/04/23 06:14:52;;;;;;;11.48;9.60;;;;;;;9.08;72.86;99551.95;1823663;78;25515;-76
2022/04/23 06:17:27;;;;;;;10.53;8.45;;;;;;;9.14;72.72;99549.31;1823660;78;27483;-76
2022/04/23 06:19:55;;;;;;;11.95;8.28;;;;;;;9.21;72.69;99556.94;1823598;78;25883;-76
2022/04/23 06:22:23;;;;;;;9.60;7.78;;;;;;;9.34;72.90;99547.89;1823655;78;25590;-75
2022/04/23 06:24:50;;;;;;;10.03;7.95;;;;;;;9.44;72.07;99557.02;1823598;78;25613;-76
2022/04/23 06:27:17;;;;;;;10.98;8.45;;;;;;;9.50;71.91;99558.45;1827399;78;25469;-76
2022/04/23 06:29:44;;;;;;;10.30;8.25;;;;;;;9.57;71.73;99551.75;1829743;77;28261;-76
2022/04/23 06:32:11;;;;;;;10.58;8.00;;;;;;;9.62;71.35;99551.05;1829673;77;25580;-76
2022/04/23 06:34:38;;;;;;;9.53;8.10;;;;;;;9.69;71.24;99543.81;1829735;78;25428;-76
2022/04/23 06:37:06;;;;;;;14.40;10.95;;;;;;;9.77;71.11;99550.29;1829666;78;25492;-76
2022/04/23 06:39:36;;;;;;;10.18;8.65;;;;;;;9.83;70.99;99550.37;1830425;77;25387;-77
2022/04/23 06:42:03;;;;;;;10.40;8.23;;;;;;;9.93;70.97;99547.86;1828067;78;27370;-76
2022/04/23 06:44:29;;;;;;;9.73;7.22;;;;;;;10.05;70.92;99541.24;1829439;78;25511;-76
2022/04/23 06:46:55;;;;;;;9.15;7.28;;;;;;;10.19;70.65;99540.45;1829858;78;25357;-76
2022/04/23 06:49:23;;;;;;;8.78;7.60;;;;;;;10.34;70.60;99545.92;1829872;78;25577;-76
2022/04/23 06:51:49;;;;;;;9.78;7.45;;;;;;;10.46;70.22;99540.60;1829954;77;25430;-76
2022/04/23 06:54:15;;;;;;;9.28;7.53;;;;;;;10.58;69.50;99537.77;1829954;77;27574;-75
2022/04/23 06:56:41;;;;;;;8.30;6.80;;;;;;;10.63;68.76;99544.34;1829821;78;25768;-76
2022/04/23 06:59:10;;;;;;;9.15;7.47;;;;;;;10.73;69.00;99538.55;1829923;77;25594;-76
2022/04/23 07:01:36;;;;;;;8.25;6.33;;;;;;;10.84;68.68;99541.11;1829978;77;25520;-76
2022/04/23 07:04:02;;;;;;;8.25;6.22;;;;;;;10.89;68.29;99538.75;1830010;77;25351;-76
2022/04/23 07:06:28;;;;;;;8.18;6.70;;;;;;;10.98;68.03;99544.09;1830131;78;27158;-75
2022/04/23 07:08:54;;;;;;;7.35;6.28;;;;;;;11.08;68.08;99546.41;1830760;77;33065;-75
2022/04/23 07:11:20;;;;;;;6.90;5.95;;;;;;;11.16;67.44;99544.20;1830741;78;25583;-75
2022/04/23 07:13:46;;;;;;;10.23;6.00;;;;;;;11.25;67.20;99546.83;1829843;78;25577;-75
2022/04/23 07:16:14;;;;;;;6.40;5.67;;;;;;;11.39;66.81;99548.72;1829947;77;32735;-76
2022/04/23 07:18:40;;;;;;;7.75;5.53;;;;;;;11.53;66.40;99545.72;1829924;77;27449;-75
2022/04/23 07:21:06;;;;;;;7.42;5.70;;;;;;;11.76;66.44;99540.72;1829806;78;25597;-75
2022/04/23 07:26:17;;;;;;;10.10;6.15;;;;;;;12.30;65.10;99537.65;1829564;78;25614;-75
2022/04/23 07:28:43;;;;;;;10.45;8.18;;;;;;;12.42;65.19;99537.64;1829930;78;25582;-75
2022/04/23 07:31:10;;;;;;;7.42;5.87;;;;;;;12.52;64.30;99537.19;1829879;77;27434;-75
2022/04/23 07:39:13;;;;;;;6.03;4.92;;;;;;;13.06;63.81;99531.23;1829774;78;25684;-77
2022/04/23 07:41:43;;;;;;;5.55;4.42;;;;;;;13.12;62.84;99523.63;1825332;78;25602;-76
2022/04/23 07:44:10;;;;;;;5.15;4.65;;;;;;;13.20;62.20;99528.91;1829905;78;27464;-76
2022/04/23 07:46:36;;;;;;;6.47;5.40;;;;;;;13.26;62.05;99527.54;1829899;77;25380;-76
2022/04/23 07:49:03;;;;;;;7.17;5.72;;;;;;;13.26;61.40;99528.89;1829351;78;25696;-76
2022/04/23 07:51:29;;;;;;;13.00;6.28;;;;;;;13.21;60.78;99531.05;1813621;78;26925;-75
2022/04/23 07:53:55;;;;;;;9.35;6.40;;;;;;;13.11;60.35;99522.84;1829857;78;25417;-76
2022/04/23 07:56:22;;;;;;;7.95;6.25;;;;;;;13.12;60.19;99552.13;1829892;77;28218;-75
2022/04/23 07:58:49;;;;;;;6.55;5.90;;;;;;;12.78;60.10;99529.81;1829762;78;25788;-75
2022/04/23 08:01:15;;;;;;;8.58;6.25;;;;;;;12.56;60.07;99526.44;1829883;77;25538;-76
2022/04/23 08:03:41;;;;;;;7.67;6.55;;;;;;;12.41;60.14;99524.42;1829851;78;25525;-75
2022/04/23 08:06:10;;;;;;;7.25;5.85;;;;;;;12.30;60.49;99524.88;1829895;78;25372;-76
2022/04/23 08:08:37;;;;;;;7.12;6.17;;;;;;;12.25;60.90;99524.31;1829926;77;27457;-75
2022/04/23 08:11:04;;;;;;;6.78;6.00;;;;;;;12.19;60.71;99524.30;1830253;78;25680;-76
2022/04/23 08:13:30;;;;;;;7.30;6.33;;;;;;;12.07;60.45;99521.02;1829564;77;25751;-75
2022/04/23 08:15:59;;;;;;;7.75;6.08;;;;;;;11.96;60.67;99524.74;1829478;78;26067;-75
2022/04/23 08:18:25;;;;;;;8.65;7.15;;;;;;;11.82;60.83;99524.25;1828654;77;25745;-74
2022/04/23 08:20:51;;;;;;;11.30;9.15;;;;;;;11.69;60.88;99532.33;1829742;78;28099;-76
2022/04/23 08:23:19;;;;;;;9.35;7.72;;;;;;;11.61;61.33;99524.30;1829835;78;25383;-75
2022/04/23 08:25:47;;;;;;;8.63;7.03;;;;;;;11.54;61.64;99531.61;1829945;77;25467;-75
2022/04/23 08:31:00;;;;;;;9.33;7.55;;;;;;;11.51;62.33;99520.08;1829933;78;25395;-75
2022/04/23 08:33:57;;;;;;;8.50;7.47;;;;;;;11.46;62.13;99521.09;1829920;77;27451;-75
2022/04/23 08:35:57;;;;;;;11.03;7.50;;;;;;;11.39;62.20;99518.93;1810215;78;25611;-74
2022/04/23 08:38:23;;;;;;;8.28;7.47;;;;;;;11.35;62.21;99513.94;1829848;78;25620;-75
2022/04/23 08:40:49;;;;;;;7.87;7.08;;;;;;;11.28;62.13;99522.38;1830908;77;25539;-73
2022/04/23 08:43:15;;;;;;;9.68;7.70;;;;;;;11.15;62.25;99520.98;1829978;77;25624;-79
2022/04/23 08:45:42;;;;;;;9.38;7.12;;;;;;;11.08;62.63;99526.68;1830000;77;27395;-76
2022/04/23 08:48:12;;;;;;;11.65;9.13;;;;;;;10.96;62.84;99524.70;1829718;78;25823;-76
2022/04/23 08:50:41;;;;;;;14.90;9.90;;;;;;;10.87;63.16;99533.45;1829838;78;25476;-76
2022/04/23 08:53:23;;;;;;;10.48;9.38;;;;;;;10.79;63.92;99529.10;1829950;78;25605;-77
2022/04/23 08:55:49;;;;;;;10.78;9.30;;;;;;;10.71;64.45;99523.22;1829969;78;25429;-76
2022/04/23 08:58:17;;;;;;;11.85;8.93;;;;;;;10.65;64.77;99525.30;1829998;78;27516;-77
2022/04/23 09:00:43;;;;;;;9.80;8.55;;;;;;;10.64;65.09;99519.67;1829916;77;25474;-77
2022/04/23 09:03:17;;;;;;;10.95;9.43;;;;;;;10.69;65.21;99509.20;1830115;77;25569;-78
2022/04/23 09:05:52;;;;;;;13.05;9.95;;;;;;;10.76;65.57;99513.55;1830191;78;25609;-76
2022/04/23 09:08:20;;;;;;;9.48;7.40;;;;;;;10.90;66.08;99507.88;1830126;77;25462;-77
2022/04/23 09:10:56;;;;;;;10.90;7.87;;;;;;;11.11;65.85;99498.96;1831057;78;28182;-77
2022/04/23 09:13:30;;;;;;;7.05;6.35;;;;;;;11.26;65.00;99503.76;1829979;78;25452;-77
2022/04/23 09:24:13;;;;;;;7.12;6.05;;;;;;;11.86;64.82;99482.58;1830322;77;26695;-75
2022/04/23 09:26:42;;;;;;;5.70;5.10;;;;;;;12.07;63.94;99487.95;1830002;77;25554;-77
2022/04/23 09:29:15;;;;;;;5.30;4.70;;;;;;;12.18;63.54;99486.92;1830283;77;25506;-75
2022/04/23 09:31:42;;;;;;;4.78;3.98;;;;;;;12.36;62.92;99488.84;1829775;78;26254;-75
2022/04/23 09:34:20;;;;;;;5.30;3.98;;;;;;;12.43;62.40;99490.96;1829801;78;25455;-75
2022/04/23 09:36:55;;;;;;;4.75;4.33;;;;;;;12.48;62.17;99490.73;1828046;77;27644;-77
2022/04/23 09:39:35;;;;;;;4.72;4.33;;;;;;;12.57;62.19;99490.63;1822728;77;25568;-77
2022/04/23 09:42:17;;;;;;;7.03;4.60;;;;;;;12.66;62.28;99487.99;1759434;80;25270;-78
2022/04/23 09:44:46;;;;;;;5.45;4.90;;;;;;;12.80;62.04;99489.55;1791463;80;25593;-79
2022/04/23 09:47:30;;;;;;;6.58;5.15;;;;;;;12.88;61.67;99489.98;1754765;80;25804;-77
2022/04/23 09:49:59;;;;;;;5.35;4.55;;;;;;;12.99;61.18;99488.92;1722687;82;27541;-78
2022/04/23 09:52:30;;;;;;;6.35;4.78;;;;;;;13.01;60.04;99492.11;1760716;81;26048;-79
2022/04/23 09:55:02;;;;;;;7.58;5.10;;;;;;;12.98;60.22;99491.44;1745420;82;26209;-77
2022/04/23 09:57:30;;;;;;;4.75;4.25;;;;;;;13.07;59.97;99490.71;1761940;81;27170;-78
2022/04/23 09:59:56;;;;;;;5.53;4.40;;;;;;;13.17;60.06;99492.16;1745787;82;25734;-78
2022/04/23 10:02:24;;;;;;;5.53;4.10;;;;;;;13.24;59.53;99485.55;1762088;81;27455;-77
2022/04/23 10:04:54;;;;;;;4.72;4.10;;;;;;;13.30;59.29;99488.80;1745341;82;26412;-79
2022/04/23 10:07:24;;;;;;;5.35;4.17;;;;;;;13.37;58.83;99489.05;1761945;81;25719;-79
2022/04/23 10:09:54;;;;;;;7.72;6.70;;;;;;;13.40;58.71;99487.78;1762732;81;26025;-80
2022/04/23 10:12:24;;;;;;;5.72;4.60;;;;;;;13.49;58.45;99485.48;1762050;81;25462;-78
2022/04/23 10:14:58;;;;;;;5.62;4.53;;;;;;;13.55;58.10;99486.24;1761515;81;28217;-77
2022/04/23 10:17:25;;;;;;;7.05;5.40;;;;;;;13.62;57.54;99486.97;1746781;82;25345;-76
2022/04/23 10:19:53;;;;;;;4.60;4.20;;;;;;;13.58;57.11;99484.73;1761905;81;25599;-75
2022/04/23 10:22:34;;;;;;;5.15;4.20;;;;;;;13.48;56.94;99480.59;1744845;82;26352;-79
2022/04/23 10:25:24;;;;;;;5.00;3.70;;;;;;;13.51;57.21;99483.20;1761958;81;25716;-79
2022/04/23 10:27:55;;;;;;;4.85;4.33;;;;;;;13.52;56.93;99483.41;1760421;80;28016;-81
2022/04/23 10:30:22;;;;;;;4.53;4.12;;;;;;;13.42;56.64;99482.00;1740086;82;25839;-77
2022/04/23 10:32:48;;;;;;;4.95;4.35;;;;;;;13.40;56.74;99491.05;1756444;81;25769;-74
2022/04/23 10:35:24;;;;;;;4.30;3.90;;;;;;;13.42;56.83;99487.44;1746773;81;25291;-79
2022/04/23 10:37:51;;;;;;;6.03;3.90;;;;;;;13.42;57.38;99484.14;1748121;82;25254;-79
2022/04/23 10:40:21;;;;;;;5.35;4.17;;;;;;;13.43;57.19;99483.02;1758447;78;27559;-78
2022/04/23 10:43:12;;;;;;;4.92;4.42;;;;;;;13.38;57.73;99487.34;1757382;81;25677;-78
2022/04/23 10:45:40;;;;;;;6.25;4.67;;;;;;;13.33;57.69;99486.24;1756817;81;25443;-79
2022/04/23 10:48:24;;;;;;;4.58;4.12;;;;;;;13.19;57.60;99489.87;1756294;81;25608;-79
2022/04/23 10:51:20;;;;;;;6.50;4.33;;;;;;;13.04;57.28;99486.78;1637927;87;25722;-78
2022/04/23 10:53:50;;;;;;;5.87;4.65;;;;;;;12.91;57.99;99491.23;1638342;85;28271;-81
2022/04/23 10:56:19;;;;;;;5.62;4.42;;;;;;;12.76;58.14;99487.31;1683310;85;26393;-80
2022/04/23 10:58:46;;;;;;;6.10;4.95;;;;;;;12.67;58.43;99488.23;1683543;85;25683;-79
2022/04/23 11:04:34;;;;;;;4.90;4.42;;;;;;;12.64;58.36;99486.77;1656451;86;26012;-78
2022/04/23 11:12:37;;;;;;;11.85;7.75;;;;;;;12.52;58.17;99485.65;1643621;86;25609;-79
2022/04/23 11:15:15;;;;;;;6.75;6.05;;;;;;;12.40;58.68;99482.95;1662406;85;25490;-78
2022/04/23 11:17:53;;;;;;;6.95;4.95;;;;;;;12.37;58.71;99482.28;1661064;84;25743;-80
2022/04/23 11:20:31;;;;;;;6.05;5.45;;;;;;;12.32;58.80;99487.36;1650938;86;28500;-79
2022/04/23 11:23:00;;;;;;;6.72;5.25;;;;;;;12.27;58.84;99478.67;1658709;86;25800;-78
2022/04/23 11:25:28;;;;;;;7.45;4.40;;;;;;;12.21;58.86;99483.54;1654877;86;25404;-79
2022/04/23 11:28:00;;;;;;;5.75;5.15;;;;;;;12.18;58.61;99488.85;1690446;82;25775;-79
2022/04/23 11:30:30;;;;;;;8.05;5.72;;;;;;;12.15;58.96;99488.38;1716247;83;25509;-79
2022/04/23 11:33:11;;;;;;;6.35;5.37;;;;;;;12.11;58.67;99479.92;1729816;82;27490;-80
2022/04/23 11:35:37;;;;;;;5.22;4.72;;;;;;;12.10;58.66;99484.53;1808875;78;25566;-81
2022/04/23 11:38:04;;;;;;;6.40;4.95;;;;;;;12.11;58.97;99482.06;1819030;77;25449;-81
2022/04/23 11:40:35;;;;;;;4.87;4.00;;;;;;;12.12;59.13;99473.36;1815897;78;25970;-79
2022/04/23 11:43:02;;;;;;;4.75;4.28;;;;;;;12.17;58.86;99475.84;1829714;78;25650;-81
2022/04/23 11:45:28;;;;;;;5.25;4.65;;;;;;;12.24;59.13;99474.73;1799623;78;27556;-82
2022/04/23 11:47:54;;;;;;;5.47;4.92;;;;;;;12.29;58.92;99479.11;1807144;78;25826;-80
2022/04/23 11:50:22;;;;;;;6.45;5.40;;;;;;;12.29;58.90;99479.11;1814858;77;25685;-80
2022/04/23 11:53:05;;;;;;;7.92;6.60;;;;;;;12.33;59.19;99482.17;1797550;79;26024;-81
2022/04/23 11:55:32;;;;;;;23.38;13.22;;;;;;;12.42;59.72;99475.84;1801650;78;25549;-81
2022/04/23 11:58:05;;;;;;;6.85;5.40;;;;;;;12.61;59.94;99475.23;1819510;78;27472;-80
2022/04/23 12:00:32;;;;;;;6.33;5.50;;;;;;;12.82;59.78;99477.78;1797339;79;25631;-80
2022/04/23 12:03:00;;;;;;;6.05;4.30;;;;;;;13.05;59.34;99479.41;1821306;78;25673;-80
2022/04/23 12:05:32;;;;;;;5.62;5.03;;;;;;;13.55;60.09;99472.66;1828075;77;26134;-79